createdAt,value
2023-05-18T00:04:11.503Z,2.83
2023-05-18T00:06:38.918Z,2.95
2023-05-18T00:09:06.473Z,2.30
2023-05-18T00:11:34.838Z,3.08
2023-05-18T00:14:03.354Z,2.72
2023-05-18T00:16:30.494Z,2.55
2023-05-18T00:19:08.321Z,2.78
2023-05-18T00:22:02.309Z,2.80
2023-05-18T00:24:29.472Z,2.75
2023-05-18T00:26:57.003Z,2.92
2023-05-18T00:29:24.112Z,2.75
2023-05-18T00:31:51.234Z,2.92
2023-05-18T00:34:18.360Z,3.35
2023-05-18T00:36:45.527Z,3.15
2023-05-18T00:39:12.798Z,2.67
2023-05-18T00:41:40.118Z,2.83
2023-05-18T00:44:07.301Z,3.08
2023-05-18T00:46:34.537Z,3.17
2023-05-18T00:49:03.030Z,2.88
2023-05-18T00:51:32.754Z,2.90
2023-05-18T00:54:02.499Z,3.33
2023-05-18T00:56:34.126Z,2.95
2023-05-18T00:59:03.288Z,3.23
2023-05-18T01:01:34.856Z,2.90
2023-05-18T01:04:04.672Z,2.97
2023-05-18T01:06:35.666Z,2.95
2023-05-18T01:09:10.038Z,4.22
2023-05-18T01:12:04.502Z,2.95
2023-05-18T01:15:14.693Z,3.40
2023-05-18T01:18:04.914Z,3.60
2023-05-18T01:20:45.883Z,3.10
2023-05-18T01:23:56.828Z,3.15
2023-05-18T01:26:30.240Z,2.72
2023-05-18T01:29:04.300Z,3.88
2023-05-18T01:31:31.896Z,2.65
2023-05-18T01:33:59.140Z,2.83
2023-05-18T01:36:26.552Z,2.95
2023-05-18T01:38:56.209Z,2.88
2023-05-18T01:41:33.226Z,2.90
2023-05-18T01:44:15.845Z,2.80
2023-05-18T01:49:36.217Z,3.05
2023-05-18T01:52:14.919Z,3.47
2023-05-18T01:54:50.093Z,2.63
2023-05-18T01:57:23.819Z,2.63
2023-05-18T01:59:51.992Z,3.50
2023-05-18T02:02:19.512Z,2.55
2023-05-18T02:04:47.305Z,3.00
2023-05-18T02:07:14.326Z,2.70
2023-05-18T02:09:44.285Z,3.00
2023-05-18T02:12:11.860Z,3.03
2023-05-18T02:14:39.236Z,3.20
2023-05-18T02:17:07.252Z,3.15
2023-05-18T02:19:38.352Z,2.92
2023-05-18T02:22:07.141Z,3.03
2023-05-18T02:24:35.186Z,2.97
2023-05-18T02:27:03.453Z,3.25
2023-05-18T02:29:30.571Z,2.83
2023-05-18T02:31:57.713Z,2.95
2023-05-18T02:34:27.547Z,3.20
2023-05-18T02:36:58.089Z,3.80
2023-05-18T02:39:25.498Z,3.08
2023-05-18T02:41:52.629Z,3.47
2023-05-18T02:44:19.920Z,3.72
2023-05-18T02:46:48.926Z,3.35
2023-05-18T02:49:16.252Z,3.58
2023-05-18T02:51:43.586Z,3.65
2023-05-18T02:54:11.501Z,2.85
2023-05-18T02:56:44.143Z,3.25
2023-05-18T02:59:25.505Z,3.45
2023-05-18T03:01:52.789Z,3.25
2023-05-18T03:04:20.083Z,3.22
2023-05-18T03:06:52.963Z,4.30
2023-05-18T03:09:21.186Z,3.33
2023-05-18T03:11:49.620Z,3.38
2023-05-18T03:14:16.786Z,3.33
2023-05-18T03:16:45.151Z,4.75
2023-05-18T03:19:16.132Z,3.50
2023-05-18T03:21:44.266Z,3.60
2023-05-18T03:24:14.988Z,4.10
2023-05-18T03:26:44.703Z,3.70
2023-05-18T03:29:13.607Z,4.22
2023-05-18T03:31:41.430Z,3.30
2023-05-18T03:34:09.967Z,3.63
2023-05-18T03:36:42.493Z,3.40
2023-05-18T03:39:43.595Z,3.08
2023-05-18T03:42:10.913Z,3.58
2023-05-18T03:44:38.267Z,3.95
2023-05-18T03:47:06.228Z,4.15
2023-05-18T03:49:35.040Z,3.55
2023-05-18T03:52:04.732Z,3.60
2023-05-18T03:54:32.781Z,3.58
2023-05-18T03:57:02.822Z,3.95
2023-05-18T04:00:54.278Z,4.07
2023-05-18T04:03:24.797Z,3.92
2023-05-18T04:05:53.808Z,3.75
2023-05-18T04:11:03.909Z,3.47
2023-05-18T04:13:28.085Z,3.60
2023-05-18T04:15:55.176Z,3.00
2023-05-18T04:18:22.317Z,3.42
2023-05-18T04:20:49.627Z,3.60
2023-05-18T04:23:17.720Z,3.20
2023-05-18T04:25:45.106Z,3.40
2023-05-18T04:28:12.432Z,3.50
2023-05-18T04:30:40.789Z,3.42
2023-05-18T04:33:08.438Z,2.88
2023-05-18T04:35:36.088Z,3.78
2023-05-18T04:38:03.369Z,3.90
2023-05-18T04:40:33.979Z,3.50
2023-05-18T04:43:01.799Z,3.17
2023-05-18T04:45:32.233Z,3.70
2023-05-18T04:48:02.008Z,3.78
2023-05-18T04:50:29.594Z,3.45
2023-05-18T04:53:02.181Z,3.88
2023-05-18T04:58:05.629Z,3.42
2023-05-18T05:00:32.751Z,3.42
2023-05-18T05:03:00.189Z,3.60
2023-05-18T05:05:27.853Z,3.35
2023-05-18T05:07:55.977Z,3.20
2023-05-18T05:10:23.956Z,3.55
2023-05-18T05:13:36.579Z,3.05
2023-05-18T05:16:30.017Z,3.45
2023-05-18T05:18:57.476Z,3.75
2023-05-18T05:21:26.205Z,3.67
2023-05-18T05:23:53.350Z,3.20
2023-05-18T05:26:21.554Z,3.42
2023-05-18T05:28:49.197Z,3.15
2023-05-18T05:31:16.457Z,3.00
2023-05-18T05:33:45.761Z,3.63
2023-05-18T05:36:13.683Z,3.63
2023-05-18T05:38:42.285Z,2.75
2023-05-18T05:41:09.376Z,3.85
2023-05-18T05:43:37.953Z,3.20
2023-05-18T05:46:05.299Z,3.40
2023-05-18T05:48:33.657Z,3.30
2023-05-18T05:51:01.396Z,3.25
2023-05-18T05:53:29.808Z,4.05
2023-05-18T05:55:57.352Z,3.08
2023-05-18T05:58:24.575Z,2.85
2023-05-18T06:00:56.988Z,3.08
2023-05-18T06:03:24.782Z,3.50
2023-05-18T06:05:51.882Z,3.83
2023-05-18T06:08:24.815Z,3.15
2023-05-18T06:10:52.841Z,2.90
2023-05-18T06:13:20.145Z,3.30
2023-05-18T06:15:58.008Z,3.15
2023-05-18T06:18:25.603Z,3.42
2023-05-18T06:20:57.670Z,3.30
2023-05-18T06:23:24.966Z,3.30
2023-05-18T06:26:04.202Z,2.83
2023-05-18T06:28:56.543Z,2.58
2023-05-18T06:31:53.036Z,2.78
2023-05-18T06:34:24.193Z,2.58
2023-05-18T06:36:51.600Z,2.50
2023-05-18T06:39:18.982Z,2.92
2023-05-18T06:41:46.340Z,2.65
2023-05-18T06:44:21.656Z,2.78
2023-05-18T06:47:14.670Z,2.60
2023-05-18T06:52:51.741Z,2.67
2023-05-18T06:55:43.929Z,2.75
2023-05-18T06:58:11.818Z,2.65
2023-05-18T07:00:39.410Z,2.53
2023-05-18T07:03:08.473Z,3.17
2023-05-18T07:05:39.192Z,2.90
2023-05-18T07:08:07.380Z,2.58
2023-05-18T07:10:35.832Z,2.63
2023-05-18T07:13:03.297Z,1.75
2023-05-18T07:15:30.837Z,2.40
2023-05-18T07:17:58.723Z,2.28
2023-05-18T07:20:26.573Z,2.30
2023-05-18T07:22:55.865Z,1.80
2023-05-18T07:25:23.992Z,2.00
2023-05-18T07:27:54.603Z,1.60
2023-05-18T07:30:23.551Z,2.40
2023-05-18T07:32:51.440Z,2.25
2023-05-18T07:35:28.243Z,2.08
2023-05-18T07:37:56.240Z,2.30
2023-05-18T07:40:32.418Z,2.42
2023-05-18T07:42:59.659Z,2.20
2023-05-18T07:45:28.581Z,2.30
2023-05-18T07:47:55.896Z,3.00
2023-05-18T07:50:23.312Z,2.55
2023-05-18T07:55:32.165Z,1.90
2023-05-18T07:58:16.190Z,2.38
2023-05-18T08:01:53.247Z,1.92
2023-05-18T08:04:22.729Z,1.90
2023-05-18T08:07:07.476Z,1.60
2023-05-18T08:09:41.400Z,1.88
2023-05-18T08:12:08.969Z,2.42
2023-05-18T08:14:36.341Z,1.90
2023-05-18T08:17:07.094Z,1.40
2023-05-18T08:19:34.260Z,1.75
2023-05-18T08:22:01.312Z,1.73
2023-05-18T08:24:28.472Z,1.90
2023-05-18T08:26:55.667Z,1.63
2023-05-18T08:29:23.329Z,2.25
2023-05-18T08:31:51.907Z,2.58
2023-05-18T08:34:28.099Z,1.80
2023-05-18T08:37:22.150Z,1.92
2023-05-18T08:39:49.331Z,1.80
2023-05-18T08:42:27.607Z,1.80
2023-05-18T08:45:20.659Z,1.60
2023-05-18T08:48:10.353Z,2.00
2023-05-18T08:50:51.520Z,2.15
2023-05-18T08:53:33.031Z,2.13
2023-05-18T08:56:01.560Z,2.05
2023-05-18T08:58:48.078Z,2.40
2023-05-18T09:01:16.142Z,2.38
2023-05-18T09:03:45.589Z,3.05
2023-05-18T09:06:12.954Z,2.10
2023-05-18T09:08:41.750Z,2.67
2023-05-18T09:11:10.172Z,2.28
2023-05-18T09:13:41.085Z,2.20
2023-05-18T09:16:27.053Z,2.17
2023-05-18T09:18:59.203Z,2.60
2023-05-18T09:21:26.531Z,2.35
2023-05-18T09:23:53.928Z,1.98
2023-05-18T09:26:22.747Z,2.30
2023-05-18T09:28:53.736Z,1.98
2023-05-18T09:31:24.815Z,2.00
2023-05-18T09:33:52.670Z,1.95
2023-05-18T09:45:28.541Z,2.10
2023-05-18T09:47:57.189Z,2.00
2023-05-18T09:50:25.577Z,2.33
2023-05-18T09:52:54.406Z,2.13
2023-05-18T09:55:22.276Z,2.80
2023-05-18T09:57:51.627Z,1.90
2023-05-18T10:00:20.856Z,2.25
2023-05-18T10:02:52.957Z,3.35
2023-05-18T10:05:28.027Z,2.60
2023-05-18T10:08:08.213Z,2.30
2023-05-18T10:11:30.651Z,2.60
2023-05-18T10:14:00.773Z,2.35
2023-05-18T10:16:32.778Z,1.88
2023-05-18T10:19:02.012Z,1.55
2023-05-18T10:21:32.581Z,1.73
2023-05-18T10:24:03.918Z,2.22
2023-05-18T10:26:44.589Z,2.13
2023-05-18T10:29:32.536Z,1.67
2023-05-18T10:32:20.240Z,2.22
2023-05-18T10:35:15.127Z,1.45
2023-05-18T10:37:50.393Z,1.90
2023-05-18T10:40:27.548Z,1.67
2023-05-18T10:43:35.513Z,1.73
2023-05-18T11:00:18.290Z,1.88
2023-05-18T11:03:09.902Z,1.90
2023-05-18T11:06:25.337Z,1.85
2023-05-18T11:09:31.989Z,1.70
2023-05-18T11:13:28.035Z,1.95
2023-05-18T11:30:34.389Z,2.33
2023-05-18T11:33:24.915Z,1.60
2023-05-18T11:36:01.881Z,1.42
2023-05-18T11:39:19.714Z,1.80
2023-05-18T11:42:06.472Z,1.98
2023-05-18T11:44:36.954Z,1.50
2023-05-18T11:47:25.206Z,2.05
2023-05-18T11:50:19.884Z,1.80
2023-05-18T11:57:03.630Z,1.60
2023-05-18T11:59:37.645Z,1.77
2023-05-18T12:02:17.430Z,2.05
2023-05-18T12:04:55.284Z,1.52
2023-05-18T12:08:31.521Z,2.00
2023-05-18T12:12:15.383Z,2.15
2023-05-18T12:25:07.976Z,1.70
2023-05-18T12:27:57.167Z,1.40
2023-05-18T12:30:38.557Z,1.70
2023-05-18T12:33:07.401Z,1.70
2023-05-18T12:35:53.638Z,1.63
2023-05-18T12:38:54.956Z,1.60
2023-05-18T12:41:34.032Z,1.67
2023-05-18T12:44:25.053Z,1.42
2023-05-18T12:56:11.567Z,1.65
2023-05-18T12:58:40.840Z,1.75
2023-05-18T13:01:12.064Z,1.50
2023-05-18T13:03:42.589Z,1.53
2023-05-18T13:18:28.354Z,1.52
2023-05-18T13:21:21.119Z,1.90
2023-05-18T13:23:48.159Z,1.80
2023-05-18T13:26:15.219Z,1.63
2023-05-18T13:28:57.204Z,1.70
2023-05-18T13:51:22.520Z,1.50
2023-05-18T13:58:36.184Z,1.60
2023-05-18T14:11:02.764Z,2.20
2023-05-18T14:27:31.215Z,1.83
2023-05-18T14:30:27.886Z,1.73
2023-05-18T14:46:08.053Z,1.75
2023-05-18T14:49:56.611Z,2.22
2023-05-18T14:52:29.629Z,1.50
2023-05-18T14:55:07.509Z,1.98
2023-05-18T14:57:50.326Z,1.73
2023-05-18T15:00:35.664Z,1.92
2023-05-18T15:03:09.042Z,1.88
2023-05-18T15:05:45.706Z,1.58
2023-05-18T15:08:12.771Z,1.65
2023-05-18T15:10:39.826Z,1.90
2023-05-18T15:13:06.836Z,1.85
2023-05-18T15:15:33.825Z,1.60
2023-05-18T15:18:01.094Z,1.67
2023-05-18T15:20:28.503Z,1.60
2023-05-18T15:23:26.984Z,1.90
2023-05-18T15:26:31.395Z,2.00
2023-05-18T15:29:27.934Z,1.50
2023-05-18T15:32:29.848Z,1.75
2023-05-18T15:35:32.230Z,1.75
2023-05-18T15:38:05.755Z,1.25
2023-05-18T15:41:21.945Z,1.80
2023-05-18T15:44:29.426Z,2.13
2023-05-18T15:50:58.865Z,1.80
2023-05-18T15:54:00.038Z,2.13
2023-05-18T16:00:54.289Z,2.25
2023-05-18T16:03:31.387Z,2.10
2023-05-18T16:06:07.981Z,2.15
2023-05-18T16:08:35.243Z,1.90
2023-05-18T16:11:03.288Z,2.03
2023-05-18T16:13:33.938Z,1.80
2023-05-18T16:16:15.688Z,1.88
2023-05-18T16:18:43.151Z,1.98
2023-05-18T16:21:30.501Z,1.80
2023-05-18T16:24:07.742Z,2.00
2023-05-18T16:30:48.104Z,1.30
2023-05-18T16:57:31.769Z,2.30
2023-05-18T17:00:41.332Z,2.03
2023-05-18T17:07:28.932Z,2.42
2023-05-18T17:10:10.960Z,2.00
2023-05-18T17:16:29.128Z,2.63
2023-05-18T17:19:04.575Z,2.35
2023-05-18T17:21:34.590Z,2.40
2023-05-18T17:24:12.256Z,1.52
2023-05-18T17:26:59.615Z,2.38
2023-05-18T17:29:38.756Z,1.70
2023-05-18T17:32:23.258Z,1.75
2023-05-18T17:34:53.686Z,1.90
2023-05-18T17:37:21.334Z,2.20
2023-05-18T17:39:49.509Z,2.53
2023-05-18T17:42:18.232Z,1.90
2023-05-18T17:44:47.429Z,2.03
2023-05-18T17:47:21.755Z,2.03
2023-05-18T17:49:58.006Z,1.75
2023-05-18T17:52:25.243Z,2.30
2023-05-18T17:54:52.746Z,2.47
2023-05-18T17:57:20.663Z,2.28
2023-05-18T17:59:57.124Z,2.28
2023-05-18T18:02:31.229Z,2.22
2023-05-18T18:05:03.096Z,2.38
2023-05-18T18:07:47.308Z,2.23
2023-05-18T18:10:24.946Z,2.25
2023-05-18T18:13:15.320Z,3.08
2023-05-18T18:15:49.725Z,2.50
2023-05-18T18:18:17.379Z,2.13
2023-05-18T18:20:44.992Z,2.00
2023-05-18T18:23:12.421Z,2.05
2023-05-18T18:25:47.224Z,2.33
2023-05-18T18:28:47.314Z,2.53
2023-05-18T18:31:37.188Z,2.60
2023-05-18T18:34:22.423Z,2.63
2023-05-18T18:37:14.981Z,2.40
2023-05-18T18:40:04.537Z,2.42
2023-05-18T18:42:31.882Z,2.30
2023-05-18T18:45:00.378Z,2.03
2023-05-18T18:47:27.850Z,2.60
2023-05-18T18:49:55.526Z,2.53
2023-05-18T18:52:22.805Z,2.50
2023-05-18T18:54:50.036Z,3.05
2023-05-18T18:57:17.321Z,2.92
2023-05-18T18:59:44.540Z,2.67
2023-05-18T19:02:11.907Z,2.70
2023-05-18T19:04:40.305Z,2.38
2023-05-18T19:07:08.045Z,2.17
2023-05-18T19:09:36.255Z,2.17
2023-05-18T19:12:04.036Z,2.63
2023-05-18T19:14:31.252Z,2.58
2023-05-18T19:16:58.830Z,2.70
2023-05-18T19:19:26.373Z,3.40
2023-05-18T19:22:18.068Z,3.75
2023-05-18T19:25:34.439Z,3.25
2023-05-18T19:31:46.018Z,3.55
2023-05-18T19:37:50.072Z,3.67
2023-05-18T19:40:32.949Z,3.00
2023-05-18T19:50:39.548Z,2.70
2023-05-18T19:53:23.071Z,2.90
2023-05-18T19:56:11.438Z,3.05
2023-05-18T19:58:39.719Z,3.20
2023-05-18T20:01:07.311Z,3.20
2023-05-18T20:03:34.950Z,3.10
2023-05-18T20:06:04.845Z,3.30
2023-05-18T20:13:43.942Z,3.78
2023-05-18T20:17:01.823Z,3.75
2023-05-18T20:19:54.057Z,3.65
2023-05-18T20:22:48.265Z,3.60
2023-05-18T20:26:11.735Z,3.55
2023-05-18T20:28:45.264Z,3.65
2023-05-18T20:31:15.399Z,3.92
2023-05-18T20:33:50.571Z,4.35
2023-05-18T20:36:18.487Z,4.40
2023-05-18T20:38:46.214Z,3.80
2023-05-18T20:41:13.840Z,3.88
2023-05-18T20:44:07.387Z,4.15
2023-05-18T20:51:16.164Z,4.32
2023-05-18T20:54:11.678Z,3.50
2023-05-18T20:57:24.812Z,3.53
2023-05-18T21:04:35.603Z,3.83
2023-05-18T21:14:27.127Z,4.55
2023-05-18T21:17:03.211Z,3.90
2023-05-18T21:32:26.541Z,4.22
2023-05-18T21:40:16.523Z,4.40
2023-05-18T21:43:19.784Z,4.85
2023-05-18T21:45:58.213Z,4.57
2023-05-18T21:49:40.176Z,4.40
2023-05-18T21:53:16.038Z,4.90
2023-05-18T21:56:02.997Z,5.40
2023-05-18T21:58:33.932Z,5.13
2023-05-18T22:01:21.519Z,4.82
2023-05-18T22:03:52.693Z,4.78
2023-05-18T22:06:45.922Z,5.07
2023-05-18T22:09:36.487Z,5.18
2023-05-18T22:12:30.867Z,5.18
2023-05-18T22:16:07.627Z,5.63
2023-05-18T22:20:17.414Z,5.68
2023-05-18T22:23:34.322Z,5.65
2023-05-18T22:35:36.729Z,5.13
2023-05-18T22:38:22.184Z,5.57
2023-05-18T22:41:46.519Z,4.75
2023-05-18T22:46:32.022Z,4.38
2023-05-18T22:49:32.308Z,4.80
2023-05-18T22:53:07.524Z,5.03
2023-05-18T23:08:20.659Z,4.88
2023-05-18T23:11:14.104Z,4.38
2023-05-18T23:13:41.265Z,4.18
2023-05-18T23:16:10.437Z,3.92
2023-05-18T23:18:38.786Z,3.95
2023-05-18T23:21:09.036Z,4.40
2023-05-18T23:23:36.230Z,4.03
2023-05-18T23:26:03.496Z,3.85
2023-05-18T23:28:51.622Z,4.47
2023-05-18T23:32:39.446Z,4.45
2023-05-18T23:40:01.550Z,4.30
2023-05-18T23:43:14.800Z,4.25
2023-05-18T23:50:03.908Z,4.05
2023-05-18T23:52:56.940Z,4.22
2023-05-18T23:55:27.191Z,4.53
2023-05-18T23:58:02.223Z,4.30
